Domov               UVHVVR             MKGP            O straneh              
ZDRAVSTVENO VARSTVO RASTLIN
  MREŽA AGROMET. POSTAJ
 ► PROGNOSTIČNA OBVESTILA
AGROMETEOROLOŠKI PODATKI -
ARSO
OBVLADOVANJE TVEGANJ ZARADI
NEUGODNIH VREMENSKIH RAZMER
  ► NARAVNE NESREČE
  ► SUŠA/MOČA
  ► NAMAKANJE
  ► ŽLED (gozdarstvo)
KARTOGRAFSKI PRIKAZI
SPLETNE POVEZAVE
PROJEKTI IN PUBLIKACIJE

AGROMETEOROLOŠKA MREŽA: VREMENSKE POSTAJE IN FENOLOŠKA OPAZOVANJA

Pregled podatkov za lokacijo Sužid, meteorološka postaja 37878

Pregled senzorjev na lokaciji

ID Ime Zadnja
vrednost
Datum
zadnje
spremembe
Tip
senzorja
1808 Omočenost lista (U) 2 U 22.3.2019 23:59 A730WET
1805 Padavine (mm) 0 mm 23.3.2019 00:00 Rain-O-Matic
1807 Relativna vlaga 2 m (% RH) 88,4 % RH 22.3.2019 23:59 50YA
1806 Temperatura 2 m (°C) 1,88 °C 22.3.2019 23:59 50YA

Pregled podatkov zadnjih 24 ur

Zap.
št.
Datum in čas Sužid
Omočenost
lista
Padavine Relativna
vlaga
2
m
Temperatura
2
m
1 23.3.2019 00:00
2 22.3.2019 23:30
3 22.3.2019 23:00 2 0 88,4 1,9
4 22.3.2019 22:30 2 0 83,5 3,2
5 22.3.2019 22:00 2 0 86,1 2,9
6 22.3.2019 21:30 1 0 82,7 3,7
7 22.3.2019 21:00 0 0 77,9 5
8 22.3.2019 20:30 0 0 74,1 6,2
9 22.3.2019 20:00 0 0 68,8 7,5
10 22.3.2019 19:30 0 0 61,5 9,6
11 22.3.2019 19:00 0 0 36,6 13,8
12 22.3.2019 18:30 0 0 32,3 15,2
13 22.3.2019 18:00 0 0 30,6 16,1
14 22.3.2019 17:30 0 0 28,5 17
15 22.3.2019 17:00 0 0 26,8 18,3
16 22.3.2019 16:30 0 0 25,4 19
17 22.3.2019 16:00 0 0 24,8 19,3
18 22.3.2019 15:30 0 0 25,2 19,4
19 22.3.2019 15:00 0 0 24,7 19,6
20 22.3.2019 14:30 0 0 25 19,3
21 22.3.2019 14:00 0 0 28 18,9
22 22.3.2019 13:30 0 0 27,1 18,2
23 22.3.2019 13:00 0 0 28,9 17,6
24 22.3.2019 12:30 0 0 31,4 17
25 22.3.2019 12:00 0 0 30,7 16,3
26 22.3.2019 11:30 0 0 32 15,3
27 22.3.2019 11:00 0 0 33,8 14,4
28 22.3.2019 10:30 0 0 37,5 13,2
29 22.3.2019 10:00 0 0 40,9 12
30 22.3.2019 09:30 0 0 42,4 11
31 22.3.2019 09:00 0 0 50,1 9,3
32 22.3.2019 08:30 0 0 58,1 6,5
33 22.3.2019 08:00 1 0 68,9 3,7
34 22.3.2019 07:30 2 0 81,4 0,9
35 22.3.2019 07:00 0 0 93,7 -2,7
36 22.3.2019 06:30 0 0 93,8 -2,9
37 22.3.2019 06:00 0 0 91,8 -2,7
38 22.3.2019 05:30 0 0 91,8 -2,1
39 22.3.2019 05:00 0 0 92,2 -2,6
40 22.3.2019 04:30 0 0 91,5 -2,3
41 22.3.2019 04:00 1 0 91,4 -1,9
42 22.3.2019 03:30 1 0 90,1 -1,7
43 22.3.2019 03:00 0 0 84 -0,6
44 22.3.2019 02:30 0 0 75,7 1,2
45 22.3.2019 02:00 0 0 75,8 1,4
46 22.3.2019 01:30 0 0 80,7 0,6
47 22.3.2019 01:00 0 0 80,2 0,6
48 22.3.2019 00:30 0 0 74,4 2
© 2011 Ministrstvo za kmetijstvo, gozdarstvo in prehrano. Vse pravice pridržane.